Time;durP1;ratioP1;P1;durP2;ratioP2;P2;SDS_P1;SDS_P2;PMS_P1;PMS_P2;Temp;Humidity;BMP_temperature;BMP_pressure;BME280_temperature;BME280_humidity;BME280_pressure;Samples;Min_cycle;Max_cycle;Signal;HPM_P1;HPM_P2
2022/07/31 00:00:33;;;;;;;;;;;22.10;95.00;;;;;;5073010;28;20202;-70
2022/07/31 00:03:03;;;;;;;;;;;22.30;94.90;;;;;;5072760;28;20219;-69
2022/07/31 00:05:30;;;;;;;;;;;22.30;93.90;;;;;;5073181;28;20230;-69
2022/07/31 00:08:05;;;;;;;;;;;22.30;93.60;;;;;;5068383;28;20220;-68
2022/07/31 00:10:33;;;;;;;;;;;22.30;93.60;;;;;;5069813;28;20218;-69
2022/07/31 00:13:01;;;;;;;;;;;22.20;93.70;;;;;;5067567;28;20732;-67
2022/07/31 00:15:28;;;;;;;;;;;22.30;93.80;;;;;;5067438;28;20205;-70
2022/07/31 00:17:56;;;;;;;;;;;22.20;94.20;;;;;;5060883;28;20202;-69
2022/07/31 00:20:25;;;;;;;;;;;22.10;94.40;;;;;;5066709;28;20229;-69
2022/07/31 00:22:54;;;;;;;;;;;22.10;94.30;;;;;;5064831;28;20244;-69
2022/07/31 00:25:21;;;;;;;;;;;22.10;94.70;;;;;;5065953;28;20188;-69
2022/07/31 00:27:49;;;;;;;;;;;22.10;94.90;;;;;;5064338;28;20207;-69
2022/07/31 00:30:17;;;;;;;;;;;22.10;94.90;;;;;;5064483;28;20194;-69
2022/07/31 00:32:45;;;;;;;;;;;22.10;95.40;;;;;;5063572;28;20206;-69
2022/07/31 00:35:16;;;;;;;;;;;22.10;95.50;;;;;;5066487;28;20218;-69
2022/07/31 00:37:45;;;;;;;;;;;22.00;95.80;;;;;;5055308;28;20198;-69
2022/07/31 00:40:14;;;;;;;;;;;22.00;95.80;;;;;;5040967;28;20630;-69
2022/07/31 00:42:42;;;;;;;;;;;22.00;95.70;;;;;;5040640;28;20250;-69
2022/07/31 00:45:11;;;;;;;;;;;21.90;95.70;;;;;;5045161;28;20217;-68
2022/07/31 00:47:40;;;;;;;;;;;21.90;95.90;;;;;;5041604;28;20285;-69
2022/07/31 00:50:08;;;;;;;;;;;21.90;95.90;;;;;;5048262;28;20202;-68
2022/07/31 00:52:36;;;;;;;;;;;21.80;96.10;;;;;;5045116;28;20194;-67
2022/07/31 00:55:06;;;;;;;;;;;21.80;96.20;;;;;;5044216;28;20616;-69
2022/07/31 00:57:34;;;;;;;;;;;21.80;96.50;;;;;;5039072;28;20678;-69
2022/07/31 01:00:04;;;;;;;;;;;21.70;96.60;;;;;;5043003;28;20667;-69
2022/07/31 01:02:32;;;;;;;;;;;21.70;97.10;;;;;;5043219;28;20194;-68
2022/07/31 01:04:59;;;;;;;;;;;21.70;97.00;;;;;;5047528;28;20202;-68
2022/07/31 01:07:27;;;;;;;;;;;21.70;96.80;;;;;;5043864;28;20228;-70
2022/07/31 01:09:55;;;;;;;;;;;21.70;97.20;;;;;;5045731;28;20626;-69
2022/07/31 01:12:27;;;;;;;;;;;21.60;97.40;;;;;;5043020;28;20204;-69
2022/07/31 01:14:56;;;;;;;;;;;21.60;97.70;;;;;;5043705;28;20256;-68
2022/07/31 01:17:25;;;;;;;;;;;21.60;97.70;;;;;;5044579;28;20182;-68
2022/07/31 01:19:53;;;;;;;;;;;21.50;97.90;;;;;;5049410;28;20556;-68
2022/07/31 01:22:30;;;;;;;;;;;21.50;98.10;;;;;;5043177;28;20194;-69
2022/07/31 01:25:05;;;;;;;;;;;21.50;97.80;;;;;;5039705;28;20352;-68
2022/07/31 01:27:43;;;;;;;;;;;21.40;98.10;;;;;;5038633;28;20569;-68
2022/07/31 01:30:18;;;;;;;;;;;21.40;97.90;;;;;;5047140;28;20309;-69
2022/07/31 01:32:47;;;;;;;;;;;21.30;98.30;;;;;;5042664;28;20191;-67
2022/07/31 01:35:17;;;;;;;;;;;21.30;98.20;;;;;;5043400;28;20200;-70
2022/07/31 01:37:47;;;;;;;;;;;21.20;98.60;;;;;;5043631;28;20203;-68
2022/07/31 01:40:16;;;;;;;;;;;21.10;99.30;;;;;;5045972;28;20199;-69
2022/07/31 01:42:47;;;;;;;;;;;21.00;99.40;;;;;;5046125;28;20186;-68
2022/07/31 01:45:15;;;;;;;;;;;21.00;99.40;;;;;;5044766;28;20199;-68
2022/07/31 01:47:44;;;;;;;;;;;21.00;99.30;;;;;;5045958;28;20209;-69
2022/07/31 01:50:12;;;;;;;;;;;21.00;99.20;;;;;;5044528;28;20223;-69
2022/07/31 01:53:01;;;;;;;;;;;20.90;99.50;;;;;;5045912;28;20232;-67
2022/07/31 01:55:29;;;;;;;;;;;20.90;99.80;;;;;;5050331;28;20742;-69
2022/07/31 01:58:17;;;;;;;;;;;20.90;99.80;;;;;;5046997;28;20245;-68
2022/07/31 02:00:46;;;;;;;;;;;20.80;99.80;;;;;;5048358;28;20670;-69
2022/07/31 02:03:16;;;;;;;;;;;20.80;99.90;;;;;;5044959;28;20212;-70
2022/07/31 02:05:44;;;;;;;;;;;20.80;99.90;;;;;;5046239;28;20202;-69
2022/07/31 02:08:13;;;;;;;;;;;20.80;99.90;;;;;;5050657;28;20198;-69
2022/07/31 02:10:42;;;;;;;;;;;20.80;99.90;;;;;;5048076;28;20194;-68
2022/07/31 02:13:10;;;;;;;;;;;20.70;99.90;;;;;;5044206;28;20245;-66
2022/07/31 02:15:38;;;;;;;;;;;20.70;99.90;;;;;;5046400;28;20198;-69
2022/07/31 02:18:07;;;;;;;;;;;20.70;99.90;;;;;;5049874;28;20242;-69
2022/07/31 02:20:36;;;;;;;;;;;20.60;99.90;;;;;;5049333;28;20202;-67
2022/07/31 02:23:04;;;;;;;;;;;20.60;99.90;;;;;;5046920;28;20583;-68
2022/07/31 02:25:34;;;;;;;;;;;20.60;99.90;;;;;;5047791;28;20194;-69
2022/07/31 02:28:02;;;;;;;;;;;20.50;99.90;;;;;;5044601;28;20194;-69
2022/07/31 02:30:32;;;;;;;;;;;20.40;99.90;;;;;;5042733;28;20195;-69
2022/07/31 02:33:07;;;;;;;;;;;20.40;99.90;;;;;;5045351;28;20675;-67
2022/07/31 02:35:37;;;;;;;;;;;20.40;99.90;;;;;;5045943;28;20196;-69
2022/07/31 02:38:11;;;;;;;;;;;20.40;99.90;;;;;;5047558;28;20228;-69
2022/07/31 02:40:50;;;;;;;;;;;20.30;99.90;;;;;;5046246;28;20282;-69
2022/07/31 02:43:18;;;;;;;;;;;20.40;99.90;;;;;;5051395;28;20207;-69
2022/07/31 02:45:46;;;;;;;;;;;20.40;99.90;;;;;;5046709;28;20203;-69
2022/07/31 02:48:14;;;;;;;;;;;20.40;99.90;;;;;;5043439;28;20210;-69
2022/07/31 02:50:44;;;;;;;;;;;20.30;99.90;;;;;;5045024;28;20215;-69
2022/07/31 02:53:12;;;;;;;;;;;20.20;99.90;;;;;;5048718;28;20680;-67
2022/07/31 02:55:40;;;;;;;;;;;20.20;99.90;;;;;;5046693;28;20265;-70
2022/07/31 02:58:07;;;;;;;;;;;20.20;99.90;;;;;;5047993;28;20197;-69
2022/07/31 03:00:35;;;;;;;;;;;20.20;99.90;;;;;;5049955;28;20205;-69
2022/07/31 03:03:03;;;;;;;;;;;20.20;99.90;;;;;;5043698;28;20673;-67
2022/07/31 03:05:31;;;;;;;;;;;20.20;99.90;;;;;;5041398;28;20202;-69
2022/07/31 03:08:00;;;;;;;;;;;20.20;99.90;;;;;;5021953;28;20186;-70
2022/07/31 03:10:28;;;;;;;;;;;20.20;99.90;;;;;;5050769;28;20240;-69
2022/07/31 03:12:56;;;;;;;;;;;20.20;99.90;;;;;;5044646;28;20620;-68
2022/07/31 03:15:26;;;;;;;;;;;20.20;99.90;;;;;;5043618;28;20225;-68
2022/07/31 03:17:54;;;;;;;;;;;20.10;99.90;;;;;;5042175;28;20629;-70
2022/07/31 03:20:22;;;;;;;;;;;20.10;99.90;;;;;;5046352;28;20204;-69
2022/07/31 03:22:50;;;;;;;;;;;20.10;99.90;;;;;;5042715;28;20271;-69
2022/07/31 03:25:19;;;;;;;;;;;20.20;99.90;;;;;;5044208;28;20257;-69
2022/07/31 03:27:49;;;;;;;;;;;20.10;99.90;;;;;;5046869;28;20203;-70
2022/07/31 03:30:24;;;;;;;;;;;20.10;99.90;;;;;;5045901;28;20210;-70
2022/07/31 03:32:52;;;;;;;;;;;20.00;99.90;;;;;;5045081;28;20242;-69
2022/07/31 03:35:20;;;;;;;;;;;19.90;99.90;;;;;;5047055;28;20734;-70
2022/07/31 03:37:48;;;;;;;;;;;20.00;99.90;;;;;;5046439;28;20207;-70
2022/07/31 03:40:16;;;;;;;;;;;20.00;99.90;;;;;;5047485;28;20080;-69
2022/07/31 03:42:45;;;;;;;;;;;20.00;99.90;;;;;;5046719;28;20487;-70
2022/07/31 03:45:13;;;;;;;;;;;19.90;99.90;;;;;;5047200;28;20195;-69
2022/07/31 03:47:41;;;;;;;;;;;19.90;99.90;;;;;;5048252;28;20270;-69
2022/07/31 03:50:09;;;;;;;;;;;19.90;99.90;;;;;;5042321;28;20195;-69
2022/07/31 03:52:37;;;;;;;;;;;19.90;99.90;;;;;;5050003;28;20248;-70
2022/07/31 03:55:06;;;;;;;;;;;19.80;99.90;;;;;;5047363;28;20259;-66
2022/07/31 03:57:35;;;;;;;;;;;19.80;99.90;;;;;;5051315;28;20251;-69
2022/07/31 04:00:05;;;;;;;;;;;19.70;99.90;;;;;;5046649;28;20206;-67
2022/07/31 04:02:43;;;;;;;;;;;19.50;99.90;;;;;;5045711;28;20273;-68
2022/07/31 04:05:11;;;;;;;;;;;19.40;99.90;;;;;;5045054;28;20195;-68
2022/07/31 04:07:39;;;;;;;;;;;19.30;99.90;;;;;;5043584;28;20202;-69
2022/07/31 04:10:07;;;;;;;;;;;19.20;99.90;;;;;;5047550;28;20210;-69
2022/07/31 04:12:35;;;;;;;;;;;19.10;99.90;;;;;;5041677;28;20209;-69
2022/07/31 04:15:05;;;;;;;;;;;19.10;99.90;;;;;;5044451;28;20195;-69
2022/07/31 04:17:33;;;;;;;;;;;19.20;99.90;;;;;;5046014;28;20667;-69
2022/07/31 04:20:01;;;;;;;;;;;19.20;99.90;;;;;;5047844;28;20250;-69
2022/07/31 04:22:32;;;;;;;;;;;19.30;99.90;;;;;;5041152;28;20247;-68
2022/07/31 04:25:00;;;;;;;;;;;19.40;99.90;;;;;;5046157;28;20310;-69
2022/07/31 04:27:28;;;;;;;;;;;19.50;99.90;;;;;;5047115;28;20090;-68
2022/07/31 04:29:56;;;;;;;;;;;19.60;99.90;;;;;;5043178;28;25069;-69
2022/07/31 04:32:25;;;;;;;;;;;19.70;99.90;;;;;;5047145;28;20602;-70
2022/07/31 04:34:53;;;;;;;;;;;19.80;99.90;;;;;;5045002;28;20122;-69
2022/07/31 04:37:21;;;;;;;;;;;19.90;99.90;;;;;;5045459;28;21039;-70
2022/07/31 04:39:48;;;;;;;;;;;20.00;99.90;;;;;;5045741;28;20747;-70
2022/07/31 04:42:16;;;;;;;;;;;20.00;99.90;;;;;;5041591;28;20237;-70
2022/07/31 04:44:44;;;;;;;;;;;20.10;99.90;;;;;;5048804;28;20209;-70
2022/07/31 04:47:12;;;;;;;;;;;20.20;99.90;;;;;;5045463;28;20194;-69
2022/07/31 04:49:41;;;;;;;;;;;20.20;99.90;;;;;;5046936;28;20204;-70
2022/07/31 04:52:09;;;;;;;;;;;20.20;99.90;;;;;;5047281;28;20715;-69
2022/07/31 04:54:37;;;;;;;;;;;20.20;99.90;;;;;;5051771;28;20269;-70
2022/07/31 04:57:05;;;;;;;;;;;20.10;99.90;;;;;;5045247;28;20196;-68
2022/07/31 04:59:33;;;;;;;;;;;20.10;99.90;;;;;;5040177;28;20673;-69
2022/07/31 05:02:21;;;;;;;;;;;20.20;99.90;;;;;;5044693;28;20631;-69
2022/07/31 05:04:50;;;;;;;;;;;20.20;99.90;;;;;;5046079;28;20183;-69
2022/07/31 05:07:23;;;;;;;;;;;20.30;99.90;;;;;;5044768;28;20194;-69
2022/07/31 05:09:55;;;;;;;;;;;20.40;99.90;;;;;;5041802;28;20205;-69
2022/07/31 05:12:23;;;;;;;;;;;20.40;99.90;;;;;;5042138;28;20195;-69
2022/07/31 05:14:50;;;;;;;;;;;20.40;99.90;;;;;;5041867;28;20195;-69
2022/07/31 05:17:18;;;;;;;;;;;20.40;99.90;;;;;;5038577;28;20268;-68
2022/07/31 05:19:46;;;;;;;;;;;20.50;99.90;;;;;;5045903;28;20259;-69
2022/07/31 05:22:15;;;;;;;;;;;20.60;99.90;;;;;;5038163;28;20119;-69
2022/07/31 05:24:45;;;;;;;;;;;20.60;99.90;;;;;;5044225;28;20231;-69
2022/07/31 05:27:13;;;;;;;;;;;20.60;99.90;;;;;;5043186;28;20199;-68
2022/07/31 05:29:40;;;;;;;;;;;20.70;99.90;;;;;;5045715;28;20219;-68
2022/07/31 05:32:08;;;;;;;;;;;20.70;99.90;;;;;;5037784;28;20198;-69
2022/07/31 05:34:36;;;;;;;;;;;20.80;99.90;;;;;;5048187;28;20210;-69
2022/07/31 05:37:04;;;;;;;;;;;20.80;99.90;;;;;;5041991;28;20091;-67
2022/07/31 05:39:33;;;;;;;;;;;20.90;99.90;;;;;;5025285;22;20251;-63
2022/07/31 05:42:01;;;;;;;;;;;21.00;99.90;;;;;;4969602;28;20759;-64
2022/07/31 05:44:29;;;;;;;;;;;21.10;99.90;;;;;;4984482;28;20655;-63
2022/07/31 05:46:58;;;;;;;;;;;21.10;99.90;;;;;;4977849;28;20210;-64
2022/07/31 05:49:25;;;;;;;;;;;21.10;99.90;;;;;;4965813;28;20143;-65
2022/07/31 05:51:53;;;;;;;;;;;21.10;99.90;;;;;;4954425;28;20251;-64
2022/07/31 05:54:21;;;;;;;;;;;21.10;99.90;;;;;;4956989;28;20196;-64
2022/07/31 05:56:50;;;;;;;;;;;21.20;99.90;;;;;;4953383;28;20192;-65
2022/07/31 05:59:18;;;;;;;;;;;21.30;99.90;;;;;;4953877;28;20254;-65
2022/07/31 06:01:46;;;;;;;;;;;21.30;99.90;;;;;;4956155;28;20739;-65
2022/07/31 06:04:14;;;;;;;;;;;21.30;99.90;;;;;;4958270;28;20233;-65
2022/07/31 06:06:42;;;;;;;;;;;21.20;99.90;;;;;;4955815;28;20564;-65
2022/07/31 06:09:09;;;;;;;;;;;21.30;99.90;;;;;;4955727;28;20208;-64
2022/07/31 06:11:37;;;;;;;;;;;21.20;99.90;;;;;;4955576;28;20200;-64
2022/07/31 06:14:07;;;;;;;;;;;21.30;99.90;;;;;;4948882;28;20715;-65
2022/07/31 06:16:34;;;;;;;;;;;21.20;99.90;;;;;;4955869;28;20226;-64
2022/07/31 06:19:02;;;;;;;;;;;21.20;99.90;;;;;;4953558;28;20208;-65
2022/07/31 06:21:30;;;;;;;;;;;21.30;99.90;;;;;;4955631;28;20196;-64
2022/07/31 06:23:58;;;;;;;;;;;21.10;99.90;;;;;;4954497;28;20666;-65
2022/07/31 06:26:25;;;;;;;;;;;20.90;99.90;;;;;;4957461;28;20196;-65
2022/07/31 06:28:54;;;;;;;;;;;20.80;99.90;;;;;;4953990;28;20272;-65
2022/07/31 06:31:23;;;;;;;;;;;20.80;99.90;;;;;;4959028;28;20201;-65
2022/07/31 06:33:51;;;;;;;;;;;20.80;99.90;;;;;;4954575;28;20197;-64
2022/07/31 06:36:19;;;;;;;;;;;21.00;99.90;;;;;;4958178;28;20196;-65
2022/07/31 06:38:47;;;;;;;;;;;21.10;99.90;;;;;;4961807;28;20201;-65
2022/07/31 06:41:43;;;;;;;;;;;21.20;99.90;;;;;;4974561;28;20316;-64
2022/07/31 06:44:03;;;;;;;;;;;21.20;99.90;;;;;;4976820;28;20249;-64
2022/07/31 06:46:32;;;;;;;;;;;21.40;99.90;;;;;;4988108;28;20710;-65
2022/07/31 06:49:00;;;;;;;;;;;21.60;99.90;;;;;;4976472;28;20208;-65
2022/07/31 06:51:35;;;;;;;;;;;21.70;99.90;;;;;;4974634;28;20228;-65
2022/07/31 06:54:04;;;;;;;;;;;21.70;99.90;;;;;;4976699;28;20288;-65
2022/07/31 06:56:32;;;;;;;;;;;21.80;99.90;;;;;;4972584;28;20196;-64
2022/07/31 06:59:00;;;;;;;;;;;21.80;99.90;;;;;;4963355;28;20207;-64
2022/07/31 07:01:28;;;;;;;;;;;21.80;99.90;;;;;;4964470;28;20220;-66
2022/07/31 07:03:57;;;;;;;;;;;21.90;99.90;;;;;;4963766;28;20227;-63
2022/07/31 07:06:25;;;;;;;;;;;22.10;99.90;;;;;;4962480;28;20304;-66
2022/07/31 07:08:53;;;;;;;;;;;22.10;99.90;;;;;;4962400;28;20807;-63
2022/07/31 07:11:21;;;;;;;;;;;22.10;99.90;;;;;;4963738;28;20228;-64
2022/07/31 07:13:49;;;;;;;;;;;22.20;99.90;;;;;;4966465;28;20192;-69
2022/07/31 07:16:17;;;;;;;;;;;22.40;99.90;;;;;;4962856;28;20567;-64
2022/07/31 07:18:45;;;;;;;;;;;22.40;99.90;;;;;;4961483;28;20196;-65
2022/07/31 07:21:14;;;;;;;;;;;22.50;99.90;;;;;;4962466;28;20234;-64
2022/07/31 07:23:42;;;;;;;;;;;22.60;99.90;;;;;;4965052;28;20828;-68
2022/07/31 07:26:09;;;;;;;;;;;22.70;99.90;;;;;;4963433;28;20727;-65
2022/07/31 07:28:37;;;;;;;;;;;22.80;99.90;;;;;;4959685;28;20204;-65
2022/07/31 07:31:05;;;;;;;;;;;23.00;99.90;;;;;;4960671;28;20230;-68
2022/07/31 07:33:33;;;;;;;;;;;23.20;99.90;;;;;;4964198;28;20254;-66
2022/07/31 07:36:09;;;;;;;;;;;23.40;99.90;;;;;;4963383;28;20199;-64
2022/07/31 07:38:52;;;;;;;;;;;23.60;99.90;;;;;;4965117;28;20199;-65
2022/07/31 07:41:20;;;;;;;;;;;23.80;99.90;;;;;;4963218;28;20208;-67
2022/07/31 07:43:48;;;;;;;;;;;23.90;99.90;;;;;;4968193;28;20211;-66
2022/07/31 07:46:19;;;;;;;;;;;24.00;99.90;;;;;;4965495;28;20747;-65
2022/07/31 07:48:49;;;;;;;;;;;24.00;99.90;;;;;;4961361;28;20253;-64
2022/07/31 07:51:17;;;;;;;;;;;23.90;99.90;;;;;;4963058;28;20211;-66
2022/07/31 07:53:45;;;;;;;;;;;23.80;99.90;;;;;;4961635;28;20205;-66
2022/07/31 07:56:14;;;;;;;;;;;23.80;99.90;;;;;;4961558;28;20967;-65
2022/07/31 07:58:42;;;;;;;;;;;23.70;99.90;;;;;;4960229;28;20211;-65
2022/07/31 08:01:09;;;;;;;;;;;23.60;99.90;;;;;;4962248;28;21048;-65
2022/07/31 08:03:37;;;;;;;;;;;23.60;99.90;;;;;;4960889;28;21163;-65
2022/07/31 08:06:19;;;;;;;;;;;23.80;99.90;;;;;;4965341;28;20109;-65
2022/07/31 08:08:46;;;;;;;;;;;24.10;99.90;;;;;;4958886;28;20214;-66
2022/07/31 08:11:16;;;;;;;;;;;24.10;99.90;;;;;;4925131;28;20225;-65
2022/07/31 08:13:45;;;;;;;;;;;24.30;99.90;;;;;;4958328;28;20192;-65
2022/07/31 08:16:17;;;;;;;;;;;24.40;99.90;;;;;;4959616;28;20224;-66
2022/07/31 08:18:45;;;;;;;;;;;24.60;99.60;;;;;;4957978;28;20276;-65
2022/07/31 08:21:13;;;;;;;;;;;24.80;98.70;;;;;;4957157;28;20208;-65
2022/07/31 08:23:41;;;;;;;;;;;24.90;97.80;;;;;;4956811;28;20235;-66
2022/07/31 08:26:08;;;;;;;;;;;25.00;98.60;;;;;;4967458;28;20200;-65
2022/07/31 08:28:39;;;;;;;;;;;25.20;99.70;;;;;;4970271;28;20196;-65
2022/07/31 08:31:08;;;;;;;;;;;25.40;99.90;;;;;;4972026;28;20195;-65
2022/07/31 08:33:35;;;;;;;;;;;25.60;98.30;;;;;;4969199;28;20208;-65
2022/07/31 08:36:07;;;;;;;;;;;25.80;98.10;;;;;;4973661;28;20196;-65
2022/07/31 08:38:35;;;;;;;;;;;26.10;97.90;;;;;;4968397;28;20200;-66
2022/07/31 08:41:03;;;;;;;;;;;26.20;97.80;;;;;;4970114;28;20212;-65
2022/07/31 08:43:31;;;;;;;;;;;26.40;97.00;;;;;;4972020;28;20676;-65
2022/07/31 08:46:21;;;;;;;;;;;26.50;97.10;;;;;;4973170;28;20196;-64
2022/07/31 08:48:52;;;;;;;;;;;26.80;96.50;;;;;;4969696;28;20203;-65
2022/07/31 08:51:20;;;;;;;;;;;26.90;95.20;;;;;;4969617;28;20738;-65
2022/07/31 08:53:50;;;;;;;;;;;27.00;95.30;;;;;;4969791;28;20204;-65
2022/07/31 08:56:19;;;;;;;;;;;26.90;95.50;;;;;;4969835;28;20197;-65
2022/07/31 08:58:47;;;;;;;;;;;27.00;95.40;;;;;;4970592;28;20204;-66
2022/07/31 09:01:15;;;;;;;;;;;26.90;94.70;;;;;;4969831;28;20196;-65
2022/07/31 09:03:45;;;;;;;;;;;26.90;94.90;;;;;;4983236;28;20283;-65
2022/07/31 09:06:12;;;;;;;;;;;26.90;94.50;;;;;;4973700;28;20200;-64
2022/07/31 09:08:40;;;;;;;;;;;26.70;94.50;;;;;;4975156;28;20219;-65
2022/07/31 09:11:09;;;;;;;;;;;26.80;94.00;;;;;;4970621;28;20699;-65
2022/07/31 09:13:37;;;;;;;;;;;26.70;93.50;;;;;;4966299;28;20239;-64
2022/07/31 09:16:05;;;;;;;;;;;26.70;93.90;;;;;;4968781;28;20200;-65
2022/07/31 09:18:33;;;;;;;;;;;26.90;93.70;;;;;;4965731;28;20611;-65
2022/07/31 09:21:04;;;;;;;;;;;26.90;93.80;;;;;;4970858;28;20564;-65
2022/07/31 09:23:43;;;;;;;;;;;27.00;93.80;;;;;;4968174;28;20381;-65
2022/07/31 09:26:11;;;;;;;;;;;27.10;94.00;;;;;;4968972;28;20595;-64
2022/07/31 09:28:39;;;;;;;;;;;26.90;93.20;;;;;;4969374;28;20248;-65
2022/07/31 09:31:07;;;;;;;;;;;26.80;93.10;;;;;;4964382;28;20204;-66
2022/07/31 09:33:37;;;;;;;;;;;26.80;93.90;;;;;;4968722;28;20196;-64
2022/07/31 09:36:13;;;;;;;;;;;26.80;93.50;;;;;;4970895;28;20579;-63
2022/07/31 09:38:42;;;;;;;;;;;26.60;93.10;;;;;;4969611;28;20330;-64
2022/07/31 09:41:10;;;;;;;;;;;26.50;93.90;;;;;;5036111;28;20207;-66
2022/07/31 09:43:59;;;;;;;;;;;26.50;93.30;;;;;;4968568;28;20705;-66
2022/07/31 09:46:37;;;;;;;;;;;26.50;94.20;;;;;;4970687;28;20204;-64
2022/07/31 09:49:05;;;;;;;;;;;26.50;93.50;;;;;;4964884;28;20204;-65
2022/07/31 09:51:39;;;;;;;;;;;26.60;94.10;;;;;;4971564;28;20657;-65
2022/07/31 09:54:07;;;;;;;;;;;26.60;93.30;;;;;;4968691;28;20208;-65
2022/07/31 09:56:35;;;;;;;;;;;26.50;93.50;;;;;;4970179;28;20651;-65
2022/07/31 09:59:05;;;;;;;;;;;26.60;93.70;;;;;;4970139;28;20213;-65
2022/07/31 10:01:35;;;;;;;;;;;26.70;93.40;;;;;;4979331;28;20204;-65
2022/07/31 10:04:05;;;;;;;;;;;26.60;93.50;;;;;;4976572;28;20689;-65
2022/07/31 10:06:34;;;;;;;;;;;26.50;93.40;;;;;;4970143;28;20317;-65
2022/07/31 10:09:04;;;;;;;;;;;26.50;93.60;;;;;;4970406;28;20568;-65
2022/07/31 10:11:32;;;;;;;;;;;26.60;93.80;;;;;;4963842;28;20723;-65
2022/07/31 10:14:02;;;;;;;;;;;26.70;93.40;;;;;;4964459;28;20223;-65
2022/07/31 10:16:32;;;;;;;;;;;26.70;93.40;;;;;;4967538;28;20727;-65
2022/07/31 10:19:00;;;;;;;;;;;26.60;94.10;;;;;;4973345;28;20242;-65
2022/07/31 10:21:31;;;;;;;;;;;26.80;93.70;;;;;;4992119;28;20204;-65
2022/07/31 10:24:00;;;;;;;;;;;26.80;93.30;;;;;;4991841;28;20200;-65
2022/07/31 10:26:30;;;;;;;;;;;26.80;94.00;;;;;;4991694;28;20630;-65
2022/07/31 10:29:17;;;;;;;;;;;27.00;93.60;;;;;;4991955;28;20236;-65
2022/07/31 10:31:46;;;;;;;;;;;27.20;92.70;;;;;;4978544;28;20204;-65
2022/07/31 10:34:14;;;;;;;;;;;27.10;92.80;;;;;;4973044;28;20205;-65
2022/07/31 10:36:43;;;;;;;;;;;27.20;92.70;;;;;;4972917;28;20204;-65
2022/07/31 10:39:15;;;;;;;;;;;27.30;93.10;;;;;;4972940;28;20551;-64
2022/07/31 10:41:50;;;;;;;;;;;27.60;93.20;;;;;;4972983;28;20200;-65
2022/07/31 10:44:22;;;;;;;;;;;27.80;93.30;;;;;;4964831;28;20200;-65
2022/07/31 10:46:49;;;;;;;;;;;28.00;93.70;;;;;;4955385;28;20664;-69
2022/07/31 10:49:17;;;;;;;;;;;28.10;92.70;;;;;;4957964;28;20212;-65
2022/07/31 10:51:45;;;;;;;;;;;28.30;93.10;;;;;;4958184;28;20196;-64
2022/07/31 10:54:14;;;;;;;;;;;28.50;92.00;;;;;;4958977;28;20211;-64
2022/07/31 10:56:42;;;;;;;;;;;28.60;92.60;;;;;;4958886;28;21103;-64
2022/07/31 10:59:11;;;;;;;;;;;28.70;93.40;;;;;;4956908;28;20201;-64
2022/07/31 11:01:46;;;;;;;;;;;28.70;92.20;;;;;;4957701;28;20219;-64
2022/07/31 11:04:26;;;;;;;;;;;28.60;91.50;;;;;;4957843;28;20211;-65
2022/07/31 11:06:53;;;;;;;;;;;28.60;91.30;;;;;;4957270;28;20207;-66
2022/07/31 11:09:21;;;;;;;;;;;28.50;91.40;;;;;;4957834;28;20211;-67
2022/07/31 11:11:49;;;;;;;;;;;28.70;92.50;;;;;;4958714;28;20245;-66
2022/07/31 11:14:18;;;;;;;;;;;28.90;91.20;;;;;;4958243;28;21267;-65
2022/07/31 11:16:49;;;;;;;;;;;29.00;90.80;;;;;;4956753;28;20238;-66
2022/07/31 11:19:17;;;;;;;;;;;29.50;91.10;;;;;;4957308;28;20223;-66
2022/07/31 11:21:45;;;;;;;;;;;30.00;90.60;;;;;;4957544;28;20212;-66
2022/07/31 11:24:14;;;;;;;;;;;30.20;89.20;;;;;;4958040;28;20212;-65
2022/07/31 11:26:42;;;;;;;;;;;30.60;90.20;;;;;;4957601;28;20253;-65
2022/07/31 11:29:10;;;;;;;;;;;31.20;88.00;;;;;;4937127;28;20846;-65
2022/07/31 11:32:00;;;;;;;;;;;31.70;85.90;;;;;;4958659;28;20296;-68
2022/07/31 11:34:28;;;;;;;;;;;32.50;85.30;;;;;;4958364;28;20661;-67
2022/07/31 11:36:56;;;;;;;;;;;33.00;84.90;;;;;;4956785;28;20169;-68
2022/07/31 11:39:26;;;;;;;;;;;33.10;83.90;;;;;;4958595;28;20216;-66
2022/07/31 11:42:03;;;;;;;;;;;33.50;81.20;;;;;;4955878;28;20190;-66
2022/07/31 11:44:34;;;;;;;;;;;33.30;80.50;;;;;;4958517;28;20200;-65
2022/07/31 11:47:03;;;;;;;;;;;33.40;81.40;;;;;;4957255;28;20204;-66
2022/07/31 11:49:59;;;;;;;;;;;33.50;80.70;;;;;;4956173;28;20311;-65
2022/07/31 11:52:27;;;;;;;;;;;33.50;80.60;;;;;;4957915;28;20203;-64
2022/07/31 11:55:05;;;;;;;;;;;33.60;79.50;;;;;;4957059;28;20193;-65
2022/07/31 11:57:36;;;;;;;;;;;33.40;79.90;;;;;;4958002;28;20198;-64
2022/07/31 12:00:20;;;;;;;;;;;33.00;79.80;;;;;;4956280;28;20207;-67
2022/07/31 12:02:57;;;;;;;;;;;32.60;80.40;;;;;;4955995;28;20168;-67
2022/07/31 12:05:25;;;;;;;;;;;32.20;80.50;;;;;;4958511;28;20563;-67
2022/07/31 12:08:05;;;;;;;;;;;32.00;80.00;;;;;;4956370;28;20196;-64
2022/07/31 12:10:33;;;;;;;;;;;31.70;80.60;;;;;;4956456;28;20195;-67
2022/07/31 12:13:01;;;;;;;;;;;31.90;82.70;;;;;;4958430;28;20192;-65
2022/07/31 12:15:29;;;;;;;;;;;31.90;79.90;;;;;;4959235;28;20179;-68
2022/07/31 12:18:01;;;;;;;;;;;31.90;79.80;;;;;;4959868;28;20197;-65
2022/07/31 12:20:29;;;;;;;;;;;32.20;80.40;;;;;;4956370;28;20291;-65
2022/07/31 12:23:04;;;;;;;;;;;32.10;79.90;;;;;;4957488;28;20277;-67
2022/07/31 12:25:42;;;;;;;;;;;31.90;78.90;;;;;;4957535;28;21362;-67
2022/07/31 12:28:12;;;;;;;;;;;31.60;80.00;;;;;;4955114;28;20197;-63
2022/07/31 12:30:40;;;;;;;;;;;31.40;79.40;;;;;;4958299;28;20634;-64
2022/07/31 12:33:10;;;;;;;;;;;31.50;80.60;;;;;;4955472;28;20281;-64
2022/07/31 12:35:38;;;;;;;;;;;31.80;79.80;;;;;;4957372;28;20208;-63
2022/07/31 12:38:22;;;;;;;;;;;32.00;79.40;;;;;;4954187;28;20215;-68
2022/07/31 12:41:07;;;;;;;;;;;32.20;77.70;;;;;;4957217;28;20219;-64
2022/07/31 12:43:37;;;;;;;;;;;32.40;78.30;;;;;;4957128;28;20211;-64
2022/07/31 12:46:16;;;;;;;;;;;32.60;78.10;;;;;;4957131;28;20214;-65
2022/07/31 12:48:45;;;;;;;;;;;32.30;78.30;;;;;;5014499;28;20219;-66
2022/07/31 12:51:13;;;;;;;;;;;32.10;80.40;;;;;;4956580;28;20204;-66
2022/07/31 12:53:41;;;;;;;;;;;31.90;79.60;;;;;;4957642;28;20269;-65
2022/07/31 12:56:11;;;;;;;;;;;32.10;78.70;;;;;;4955855;28;20204;-64
2022/07/31 12:58:39;;;;;;;;;;;32.30;78.10;;;;;;4954904;28;21141;-68
2022/07/31 13:01:06;;;;;;;;;;;32.90;77.90;;;;;;4957726;28;20141;-65
2022/07/31 13:03:34;;;;;;;;;;;33.00;76.90;;;;;;4956231;28;20074;-65
2022/07/31 13:06:14;;;;;;;;;;;33.30;76.30;;;;;;4955605;28;20223;-66
2022/07/31 13:08:42;;;;;;;;;;;33.40;79.90;;;;;;4954579;28;20204;-64
2022/07/31 13:11:10;;;;;;;;;;;33.20;76.20;;;;;;4956467;28;20180;-65
2022/07/31 13:13:38;;;;;;;;;;;32.80;76.30;;;;;;4955171;28;20625;-64
2022/07/31 13:16:06;;;;;;;;;;;32.50;76.50;;;;;;4955337;28;20227;-65
2022/07/31 13:18:34;;;;;;;;;;;32.40;76.80;;;;;;4954632;28;20217;-65
2022/07/31 13:21:02;;;;;;;;;;;32.40;76.90;;;;;;4957248;28;20593;-65
2022/07/31 13:23:31;;;;;;;;;;;32.20;77.30;;;;;;4955334;28;20208;-65
2022/07/31 13:25:59;;;;;;;;;;;32.10;77.00;;;;;;4956131;28;20697;-64
2022/07/31 13:28:26;;;;;;;;;;;32.20;78.20;;;;;;4951947;28;20196;-67
2022/07/31 13:30:54;;;;;;;;;;;31.90;75.50;;;;;;4955397;28;20229;-65
2022/07/31 13:33:22;;;;;;;;;;;31.90;75.80;;;;;;4954964;28;20216;-65
2022/07/31 13:35:50;;;;;;;;;;;31.90;76.50;;;;;;4956861;28;21558;-64
2022/07/31 13:38:18;;;;;;;;;;;31.80;77.50;;;;;;4955030;28;20310;-65
2022/07/31 13:43:32;;;;;;;;;;;31.50;75.70;;;;;;4955530;28;20211;-65
2022/07/31 13:46:00;;;;;;;;;;;31.30;76.70;;;;;;4958325;28;20196;-64
2022/07/31 13:48:28;;;;;;;;;;;31.20;77.10;;;;;;4956202;28;20195;-64
2022/07/31 13:50:55;;;;;;;;;;;31.20;76.90;;;;;;5016793;22;20706;-65
2022/07/31 13:53:23;;;;;;;;;;;31.20;75.90;;;;;;5061749;28;20209;-65
2022/07/31 13:55:52;;;;;;;;;;;31.20;76.60;;;;;;5056080;28;20601;-65
2022/07/31 13:58:20;;;;;;;;;;;31.20;76.90;;;;;;5054949;28;20709;-66
2022/07/31 14:00:48;;;;;;;;;;;31.10;76.20;;;;;;5055129;28;20191;-65
2022/07/31 14:03:16;;;;;;;;;;;31.10;76.60;;;;;;5054985;28;20643;-65
2022/07/31 14:05:48;;;;;;;;;;;30.90;76.80;;;;;;5044188;28;20206;-65
2022/07/31 14:08:16;;;;;;;;;;;30.80;77.50;;;;;;5048451;28;20313;-65
2022/07/31 14:11:05;;;;;;;;;;;30.70;78.00;;;;;;5060819;28;20650;-66
2022/07/31 14:13:41;;;;;;;;;;;30.60;77.70;;;;;;5056240;28;20283;-66
2022/07/31 14:16:09;;;;;;;;;;;30.40;78.20;;;;;;5054645;28;20202;-65
2022/07/31 14:18:37;;;;;;;;;;;30.40;78.90;;;;;;5053933;28;20718;-65
2022/07/31 14:21:05;;;;;;;;;;;30.30;79.80;;;;;;5039624;28;20248;-65
2022/07/31 14:23:33;;;;;;;;;;;30.20;80.30;;;;;;5035208;28;20199;-65
2022/07/31 14:26:08;;;;;;;;;;;30.30;81.30;;;;;;5035236;28;20871;-65
2022/07/31 14:28:36;;;;;;;;;;;30.30;82.80;;;;;;5035069;28;20076;-65
2022/07/31 14:31:04;;;;;;;;;;;30.10;80.40;;;;;;5048517;28;20286;-66
2022/07/31 14:33:31;;;;;;;;;;;30.00;78.10;;;;;;5052014;28;20556;-65